Terminal Aerodrome Forecast
Issued by NWS Charleston, WV

Current Version | Previous Version | Graphics & Text | Print | Product List | Glossary On
Versions: 1 2 3 4 5 6 7 8 9 10 11 12 13 14 15 16 17 18 19 20 21 22 23 24 25
000
FTUS41 KRLX 271700
TAFPKB
TAF
KPKB 271738Z 2718/2818 20011G17KT 4SM +TSRA BR BKN040CB
     FM272200 20010G15KT 6SM BR VCTS BKN040CB
     FM280200 25009KT P6SM VCTS BKN040CB
     FM280300 27009KT P6SM BKN040
     FM280600 26005KT P6SM BKN035
     FM281300 30009KT P6SM BKN025
     FM281500 28010KT P6SM VCTS BKN025CB
     FM281700 28010KT P6SM -SHRA VCTS BKN030CB=

USA.gov is the U.S. government's official web portal to all federal, state and local government web resources and services.